sensor_id;sensor_type;location;lat;lon;timestamp;pressure;altitude;pressure_sealevel;temperature;humidity
54439;BME280;40347;53.848;27.498;2023-08-07T00:00:53;997.7;;;25.4;66
54439;BME280;40347;53.848;27.498;2023-08-07T00:05:29;997.6;;;25.4;66.1
54439;BME280;40347;53.848;27.498;2023-08-07T00:10:23;997.7;;;25.4;66.1
54439;BME280;40347;53.848;27.498;2023-08-07T00:15:23;997.6;;;25.4;65.9
54439;BME280;40347;53.848;27.498;2023-08-07T00:20:37;997.6;;;25.4;65.9
54439;BME280;40347;53.848;27.498;2023-08-07T00:25:29;997.5;;;25.4;66
54439;BME280;40347;53.848;27.498;2023-08-07T00:30:53;997.5;;;25.4;66
54439;BME280;40347;53.848;27.498;2023-08-07T00:35:43;997.5;;;25.4;66.3
54439;BME280;40347;53.848;27.498;2023-08-07T00:40:16;997.5;;;25.3;66.5
54439;BME280;40347;53.848;27.498;2023-08-07T00:45:23;997.5;;;25.3;66.3
54439;BME280;40347;53.848;27.498;2023-08-07T00:50:23;997.5;;;25.3;66.4
54439;BME280;40347;53.848;27.498;2023-08-07T00:55:15;997.5;;;25.3;66.5
54439;BME280;40347;53.848;27.498;2023-08-07T01:00:23;997.5;;;25.2;66.9
54439;BME280;40347;53.848;27.498;2023-08-07T01:05:15;997.7;;;25.2;67
54439;BME280;40347;53.848;27.498;2023-08-07T01:10:25;997.9;;;25.2;67.2
54439;BME280;40347;53.848;27.498;2023-08-07T01:15:45;997.9;;;25.2;67.1
54439;BME280;40347;53.848;27.498;2023-08-07T01:20:15;998;;;25.2;67.1
54439;BME280;40347;53.848;27.498;2023-08-07T01:25:31;998;;;25.2;67.2
54439;BME280;40347;53.848;27.498;2023-08-07T01:30:17;997.9;;;25.2;67.2
54439;BME280;40347;53.848;27.498;2023-08-07T01:35:16;997.8;;;25.2;67.3
54439;BME280;40347;53.848;27.498;2023-08-07T01:40:29;997.8;;;25.1;67.5
54439;BME280;40347;53.848;27.498;2023-08-07T01:45:21;997.7;;;25.1;67.7
54439;BME280;40347;53.848;27.498;2023-08-07T01:50:45;997.7;;;24.9;68
54439;BME280;40347;53.848;27.498;2023-08-07T01:55:37;997.7;;;24.8;68.4
54439;BME280;40347;53.848;27.498;2023-08-07T02:00:21;997.6;;;24.7;68.7
54439;BME280;40347;53.848;27.498;2023-08-07T02:05:37;997.6;;;24.7;68.9
54439;BME280;40347;53.848;27.498;2023-08-07T02:10:29;997.5;;;24.6;69.3
54439;BME280;40347;53.848;27.498;2023-08-07T02:15:29;997.5;;;24.6;69.1
54439;BME280;40347;53.848;27.498;2023-08-07T02:20:23;997.6;;;24.5;69.5
54439;BME280;40347;53.848;27.498;2023-08-07T02:25:15;997.5;;;24.5;69.5
54439;BME280;40347;53.848;27.498;2023-08-07T02:30:30;997.4;;;24.4;70.1
54439;BME280;40347;53.848;27.498;2023-08-07T02:35:15;997.4;;;24.4;70.1
54439;BME280;40347;53.848;27.498;2023-08-07T02:40:29;997.4;;;24.4;70.5
54439;BME280;40347;53.848;27.498;2023-08-07T02:45:29;997.4;;;24.3;70.3
54439;BME280;40347;53.848;27.498;2023-08-07T02:50:29;997.4;;;24.3;70.7
54439;BME280;40347;53.848;27.498;2023-08-07T02:55:23;997.3;;;24.3;70.8
54439;BME280;40347;53.848;27.498;2023-08-07T03:00:37;997.2;;;24.2;71
54439;BME280;40347;53.848;27.498;2023-08-07T03:06:03;997.1;;;24.3;71
54439;BME280;40347;53.848;27.498;2023-08-07T03:10:15;997;;;24.2;70.9
54439;BME280;40347;53.848;27.498;2023-08-07T03:15:15;996.9;;;24.3;70.6
54439;BME280;40347;53.848;27.498;2023-08-07T03:20:37;996.8;;;24.3;70.8
54439;BME280;40347;53.848;27.498;2023-08-07T03:25:43;996.9;;;24.3;70.5
54439;BME280;40347;53.848;27.498;2023-08-07T03:30:29;996.9;;;24.4;70.3
54439;BME280;40347;53.848;27.498;2023-08-07T03:35:45;996.9;;;24.4;69.9
54439;BME280;40347;53.848;27.498;2023-08-07T03:40:21;996.8;;;24.5;69.8
54439;BME280;40347;53.848;27.498;2023-08-07T03:45:29;996.8;;;24.5;69.6
54439;BME280;40347;53.848;27.498;2023-08-07T03:50:47;996.8;;;24.6;69.5
54439;BME280;40347;53.848;27.498;2023-08-07T03:55:16;996.7;;;24.7;69.1
54439;BME280;40347;53.848;27.498;2023-08-07T04:00:23;996.6;;;24.9;68.9
54439;BME280;40347;53.848;27.498;2023-08-07T04:05:15;996.5;;;25.1;68.2
54439;BME280;40347;53.848;27.498;2023-08-07T04:10:38;996.5;;;25.1;67.9
54439;BME280;40347;53.848;27.498;2023-08-07T04:15:21;996.4;;;25.2;67.7
54439;BME280;40347;53.848;27.498;2023-08-07T04:20:48;996.4;;;25.2;67.8
54439;BME280;40347;53.848;27.498;2023-08-07T04:25:16;996.3;;;25.3;67.6
54439;BME280;40347;53.848;27.498;2023-08-07T04:30:35;996.2;;;25.4;67.3
54439;BME280;40347;53.848;27.498;2023-08-07T04:35:16;996.1;;;25.5;66.9
54439;BME280;40347;53.848;27.498;2023-08-07T04:40:23;996.1;;;25.6;66.6
54439;BME280;40347;53.848;27.498;2023-08-07T04:45:16;995.9;;;25.8;66.1
54439;BME280;40347;53.848;27.498;2023-08-07T04:50:21;995.8;;;25.9;65.8
54439;BME280;40347;53.848;27.498;2023-08-07T04:55:29;995.7;;;26.1;65.4
54439;BME280;40347;53.848;27.498;2023-08-07T05:00:16;995.7;;;26.3;64.9
54439;BME280;40347;53.848;27.498;2023-08-07T05:05:29;995.6;;;26.6;64.1
54439;BME280;40347;53.848;27.498;2023-08-07T05:11:04;995.6;;;26.9;63.2
54439;BME280;40347;53.848;27.498;2023-08-07T05:15:24;995.5;;;27.2;62.1
54439;BME280;40347;53.848;27.498;2023-08-07T05:20:37;995.4;;;27.4;61.4
54439;BME280;40347;53.848;27.498;2023-08-07T05:25:48;995.5;;;27.3;61.3
54439;BME280;40347;53.848;27.498;2023-08-07T05:30:40;995.4;;;27.4;61.6
54439;BME280;40347;53.848;27.498;2023-08-07T05:35:16;995.3;;;27.5;61.4
54439;BME280;40347;53.848;27.498;2023-08-07T05:40:48;995.2;;;27.7;60.7
54439;BME280;40347;53.848;27.498;2023-08-07T05:45:16;995.2;;;27.8;60.3
54439;BME280;40347;53.848;27.498;2023-08-07T05:50:24;995.1;;;27.9;59.8
54439;BME280;40347;53.848;27.498;2023-08-07T05:55:16;995.1;;;28;58.8
54439;BME280;40347;53.848;27.498;2023-08-07T06:00:30;995.1;;;28;59
54439;BME280;40347;53.848;27.498;2023-08-07T06:05:36;995;;;28.2;58.5
54439;BME280;40347;53.848;27.498;2023-08-07T06:10:16;995;;;28.2;58.5
54439;BME280;40347;53.848;27.498;2023-08-07T06:15:24;995.2;;;28.1;58.8
54439;BME280;40347;53.848;27.498;2023-08-07T06:20:36;995.4;;;28.1;58.5
54439;BME280;40347;53.848;27.498;2023-08-07T06:25:46;995.4;;;28.1;58.3
54439;BME280;40347;53.848;27.498;2023-08-07T06:30:16;995.5;;;28.1;58
54439;BME280;40347;53.848;27.498;2023-08-07T06:35:30;995.7;;;27.9;58.3
54439;BME280;40347;53.848;27.498;2023-08-07T06:40:38;995.6;;;27.8;58.5
54439;BME280;40347;53.848;27.498;2023-08-07T06:45:24;995.5;;;27.7;58.7
54439;BME280;40347;53.848;27.498;2023-08-07T06:50:28;995.5;;;27.8;58.7
54439;BME280;40347;53.848;27.498;2023-08-07T06:55:28;995.5;;;27.8;58.4
54439;BME280;40347;53.848;27.498;2023-08-07T07:00:16;995.4;;;27.7;58.5
54439;BME280;40347;53.848;27.498;2023-08-07T07:05:38;995.3;;;27.7;58.7
54439;BME280;40347;53.848;27.498;2023-08-07T07:10:34;995.3;;;27.5;58.8
54439;BME280;40347;53.848;27.498;2023-08-07T07:15:16;995.2;;;27.7;58.8
54439;BME280;40347;53.848;27.498;2023-08-07T07:20:30;995.2;;;28.1;58.3
54439;BME280;40347;53.848;27.498;2023-08-07T07:25:24;995.4;;;28.3;57.5
54439;BME280;40347;53.848;27.498;2023-08-07T07:30:16;995.6;;;28.6;56.9
54439;BME280;40347;53.848;27.498;2023-08-07T07:35:38;995.7;;;28.8;56.5
54439;BME280;40347;53.848;27.498;2023-08-07T07:40:36;995.8;;;28.5;57.1
54439;BME280;40347;53.848;27.498;2023-08-07T07:45:16;995.4;;;27.9;58.2
54439;BME280;40347;53.848;27.498;2023-08-07T07:50:30;995;;;27.3;59.9
54439;BME280;40347;53.848;27.498;2023-08-07T07:55:30;994.6;;;27.4;61
54439;BME280;40347;53.848;27.498;2023-08-07T08:00:16;994.7;;;27.3;61.2
54439;BME280;40347;53.848;27.498;2023-08-07T08:05:16;994.5;;;27.2;61.2
54439;BME280;40347;53.848;27.498;2023-08-07T08:10:28;994.4;;;27.1;61.6
54439;BME280;40347;53.848;27.498;2023-08-07T08:15:16;994.7;;;27.2;61.4
54439;BME280;40347;53.848;27.498;2023-08-07T08:21:02;994.6;;;27.1;61.5
54439;BME280;40347;53.848;27.498;2023-08-07T08:25:36;994.1;;;26.6;64.5
54439;BME280;40347;53.848;27.498;2023-08-07T08:30:38;994.6;;;25.4;69.7
54439;BME280;40347;53.848;27.498;2023-08-07T08:35:16;995.5;;;24.4;72.9
54439;BME280;40347;53.848;27.498;2023-08-07T08:40:24;995.8;;;23.7;76.2
54439;BME280;40347;53.848;27.498;2023-08-07T08:45:42;995;;;23.2;77.9
54439;BME280;40347;53.848;27.498;2023-08-07T08:50:16;995;;;22.9;80.8
54439;BME280;40347;53.848;27.498;2023-08-07T08:55:16;994.9;;;22.9;82.4
54439;BME280;40347;53.848;27.498;2023-08-07T09:00:52;995;;;23;83.3
54439;BME280;40347;53.848;27.498;2023-08-07T09:05:30;995.2;;;23;82.9
54439;BME280;40347;53.848;27.498;2023-08-07T09:10:24;995;;;22.9;83.5
54439;BME280;40347;53.848;27.498;2023-08-07T09:15:16;994.9;;;22.8;84
54439;BME280;40347;53.848;27.498;2023-08-07T09:20:16;994.7;;;22.8;85
54439;BME280;40347;53.848;27.498;2023-08-07T09:25:28;994.8;;;22.8;85.5
54439;BME280;40347;53.848;27.498;2023-08-07T09:30:30;995.1;;;22.9;85.3
54439;BME280;40347;53.848;27.498;2023-08-07T09:35:32;995.3;;;22.8;83.5
54439;BME280;40347;53.848;27.498;2023-08-07T09:40:16;995.3;;;22.5;83.7
54439;BME280;40347;53.848;27.498;2023-08-07T09:45:19;995.1;;;22.3;84.3
54439;BME280;40347;53.848;27.498;2023-08-07T09:50:38;995.1;;;22.2;85.4
54439;BME280;40347;53.848;27.498;2023-08-07T09:55:28;994.9;;;22.2;86
54439;BME280;40347;53.848;27.498;2023-08-07T10:00:33;995.2;;;22.1;86.5
54439;BME280;40347;53.848;27.498;2023-08-07T10:05:24;995.9;;;22;86.1
54439;BME280;40347;53.848;27.498;2023-08-07T10:10:24;995.7;;;21.8;87.3
54439;BME280;40347;53.848;27.498;2023-08-07T10:15:32;995.8;;;21.6;87.9
54439;BME280;40347;53.848;27.498;2023-08-07T10:20:38;996;;;21.5;88.7
54439;BME280;40347;53.848;27.498;2023-08-07T10:25:16;996.2;;;21.4;89.2
54439;BME280;40347;53.848;27.498;2023-08-07T10:30:28;996.4;;;21.3;88.9
54439;BME280;40347;53.848;27.498;2023-08-07T10:35:29;996.4;;;21.1;88.5
54439;BME280;40347;53.848;27.498;2023-08-07T10:40:47;996.3;;;20.7;87.9
54439;BME280;40347;53.848;27.498;2023-08-07T10:45:52;996;;;19.9;86.1
54439;BME280;40347;53.848;27.498;2023-08-07T10:50:30;995.7;;;19.2;86.3
54439;BME280;40347;53.848;27.498;2023-08-07T10:55:26;995.2;;;18.8;86.5
54439;BME280;40347;53.848;27.498;2023-08-07T11:00:43;995.3;;;18.4;87.9
54439;BME280;40347;53.848;27.498;2023-08-07T11:05:16;996.1;;;18.3;89.4
54439;BME280;40347;53.848;27.498;2023-08-07T11:10:46;995.4;;;18.3;90.6
54439;BME280;40347;53.848;27.498;2023-08-07T11:15:24;995.2;;;18.4;91.2
54439;BME280;40347;53.848;27.498;2023-08-07T11:20:25;995.2;;;18.7;91.4
54439;BME280;40347;53.848;27.498;2023-08-07T11:25:36;995.3;;;18.8;91.3
54439;BME280;40347;53.848;27.498;2023-08-07T11:30:30;995.3;;;18.8;90.5
54439;BME280;40347;53.848;27.498;2023-08-07T11:35:16;995.1;;;18.7;90
54439;BME280;40347;53.848;27.498;2023-08-07T11:40:53;995.2;;;18.6;90.4
54439;BME280;40347;53.848;27.498;2023-08-07T11:45:32;995.1;;;18.7;91
54439;BME280;40347;53.848;27.498;2023-08-07T11:50:16;994.6;;;18.8;91.1
54439;BME280;40347;53.848;27.498;2023-08-07T11:55:24;994.2;;;19.2;91.3
54439;BME280;40347;53.848;27.498;2023-08-07T12:00:30;993.8;;;19.9;91.7
54439;BME280;40347;53.848;27.498;2023-08-07T12:05:38;993.8;;;20.5;90.5
54439;BME280;40347;53.848;27.498;2023-08-07T12:10:36;993.9;;;20.9;89.9
54439;BME280;40347;53.848;27.498;2023-08-07T12:15:28;993.9;;;21.2;88.7
54439;BME280;40347;53.848;27.498;2023-08-07T12:20:24;994.1;;;21.6;88.1
54439;BME280;40347;53.848;27.498;2023-08-07T12:26:02;994.3;;;21.8;86.3
54439;BME280;40347;53.848;27.498;2023-08-07T12:30:16;994.7;;;21.8;85.1
54439;BME280;40347;53.848;27.498;2023-08-07T12:35:40;994.9;;;21.9;84.7
54439;BME280;40347;53.848;27.498;2023-08-07T12:40:16;995;;;22.1;84.3
54439;BME280;40347;53.848;27.498;2023-08-07T12:45:34;994.9;;;22.4;82.6
54439;BME280;40347;53.848;27.498;2023-08-07T12:50:16;994.4;;;22.6;81.4
54439;BME280;40347;53.848;27.498;2023-08-07T12:55:24;994;;;22.7;80.9
54439;BME280;40347;53.848;27.498;2023-08-07T13:00:22;993.5;;;22.8;80.3
54439;BME280;40347;53.848;27.498;2023-08-07T13:05:17;993.2;;;22.8;79.8
54439;BME280;40347;53.848;27.498;2023-08-07T13:10:16;993;;;23;79.3
54439;BME280;40347;53.848;27.498;2023-08-07T13:15:26;993;;;22.9;79.1
54439;BME280;40347;53.848;27.498;2023-08-07T13:20:26;993.2;;;23;78.8
54439;BME280;40347;53.848;27.498;2023-08-07T13:25:24;993.5;;;22.8;78.9
54439;BME280;40347;53.848;27.498;2023-08-07T13:30:16;993.9;;;22.8;79.1
54439;BME280;40347;53.848;27.498;2023-08-07T13:35:16;993.9;;;23;78.8
54439;BME280;40347;53.848;27.498;2023-08-07T13:40:24;993.9;;;23.1;78.4
54439;BME280;40347;53.848;27.498;2023-08-07T13:45:16;994;;;23.1;79.1
54439;BME280;40347;53.848;27.498;2023-08-07T13:50:26;994.1;;;23;79.5
54439;BME280;40347;53.848;27.498;2023-08-07T13:55:42;994;;;22.7;79.9
54439;BME280;40347;53.848;27.498;2023-08-07T14:00:16;994;;;22.4;80.8
54439;BME280;40347;53.848;27.498;2023-08-07T14:05:44;994.1;;;22.2;81.7
54439;BME280;40347;53.848;27.498;2023-08-07T14:10:26;994.1;;;22.1;82.9
54439;BME280;40347;53.848;27.498;2023-08-07T14:15:38;994.1;;;21.9;83.1
54439;BME280;40347;53.848;27.498;2023-08-07T14:20:34;994.1;;;21.6;82.6
54439;BME280;40347;53.848;27.498;2023-08-07T14:25:26;994.1;;;21.4;83.2
54439;BME280;40347;53.848;27.498;2023-08-07T14:30:16;994;;;21.2;83.1
54439;BME280;40347;53.848;27.498;2023-08-07T14:35:36;994;;;21.1;83.1
54439;BME280;40347;53.848;27.498;2023-08-07T14:40:16;994;;;21;83.2
54439;BME280;40347;53.848;27.498;2023-08-07T14:45:30;993.8;;;20.8;83.7
54439;BME280;40347;53.848;27.498;2023-08-07T14:50:41;993.6;;;20.7;84.1
54439;BME280;40347;53.848;27.498;2023-08-07T14:55:16;993.5;;;20.6;84.6
54439;BME280;40347;53.848;27.498;2023-08-07T15:00:34;993.4;;;20.6;85.3
54439;BME280;40347;53.848;27.498;2023-08-07T15:05:40;993.4;;;20.5;85.7
54439;BME280;40347;53.848;27.498;2023-08-07T15:10:16;993.5;;;20.4;85.8
54439;BME280;40347;53.848;27.498;2023-08-07T15:15:24;993.6;;;20.3;86.2
54439;BME280;40347;53.848;27.498;2023-08-07T15:20:38;993.7;;;20.2;86.5
54439;BME280;40347;53.848;27.498;2023-08-07T15:25:50;993.7;;;20.1;87.6
54439;BME280;40347;53.848;27.498;2023-08-07T15:30:26;993.8;;;19.9;87.9
54439;BME280;40347;53.848;27.498;2023-08-07T15:35:16;993.6;;;19.7;88.6
54439;BME280;40347;53.848;27.498;2023-08-07T15:40:16;993.5;;;19.3;88.5
54439;BME280;40347;53.848;27.498;2023-08-07T15:45:34;993.6;;;18.7;88.5
54439;BME280;40347;53.848;27.498;2023-08-07T15:50:16;994;;;18.5;89.3
54439;BME280;40347;53.848;27.498;2023-08-07T15:55:38;994.1;;;18.3;89.9
54439;BME280;40347;53.848;27.498;2023-08-07T16:00:24;994.1;;;18.1;90
54439;BME280;40347;53.848;27.498;2023-08-07T16:05:16;994.3;;;17.9;89.7
54439;BME280;40347;53.848;27.498;2023-08-07T16:10:52;994.4;;;17.8;89.5
54439;BME280;40347;53.848;27.498;2023-08-07T16:15:16;994.4;;;17.7;89.1
54439;BME280;40347;53.848;27.498;2023-08-07T16:20:16;994.6;;;17.6;89.4
54439;BME280;40347;53.848;27.498;2023-08-07T16:25:40;994.7;;;17.4;89.9
54439;BME280;40347;53.848;27.498;2023-08-07T16:30:24;994.7;;;17.4;90.5
54439;BME280;40347;53.848;27.498;2023-08-07T16:35:34;994.7;;;17.4;90.5
54439;BME280;40347;53.848;27.498;2023-08-07T16:40:40;994.6;;;17.3;90
54439;BME280;40347;53.848;27.498;2023-08-07T16:45:22;994.6;;;17.1;89.7
54439;BME280;40347;53.848;27.498;2023-08-07T16:50:38;994.5;;;17.1;90.4
54439;BME280;40347;53.848;27.498;2023-08-07T16:55:16;994.6;;;17;90.3
54439;BME280;40347;53.848;27.498;2023-08-07T17:00:40;994.7;;;17;90.3
54439;BME280;40347;53.848;27.498;2023-08-07T17:05:16;994.7;;;16.9;90.7
54439;BME280;40347;53.848;27.498;2023-08-07T17:10:16;994.6;;;16.9;90.7
54439;BME280;40347;53.848;27.498;2023-08-07T17:15:16;994.8;;;16.9;90.5
54439;BME280;40347;53.848;27.498;2023-08-07T17:20:30;995;;;16.8;90.3
54439;BME280;40347;53.848;27.498;2023-08-07T17:25:16;995.2;;;16.7;90.2
54439;BME280;40347;53.848;27.498;2023-08-07T17:30:30;995.2;;;16.7;90.7
54439;BME280;40347;53.848;27.498;2023-08-07T17:35:38;995.3;;;16.8;90.9
54439;BME280;40347;53.848;27.498;2023-08-07T17:40:17;995.4;;;16.7;90
54439;BME280;40347;53.848;27.498;2023-08-07T17:45:52;995.4;;;16.7;90.1
54439;BME280;40347;53.848;27.498;2023-08-07T17:50:30;995.6;;;16.6;90
54439;BME280;40347;53.848;27.498;2023-08-07T17:55:16;995.7;;;16.6;90.2
54439;BME280;40347;53.848;27.498;2023-08-07T18:00:38;995.8;;;16.5;90.3
54439;BME280;40347;53.848;27.498;2023-08-07T18:05:30;996;;;16.5;90.9
54439;BME280;40347;53.848;27.498;2023-08-07T18:10:16;996.2;;;16.4;90.6
54439;BME280;40347;53.848;27.498;2023-08-07T18:15:28;996.3;;;16.4;90.6
54439;BME280;40347;53.848;27.498;2023-08-07T18:20:16;996.5;;;16.4;90.9
54439;BME280;40347;53.848;27.498;2023-08-07T18:25:16;996.6;;;16.3;90.8
54439;BME280;40347;53.848;27.498;2023-08-07T18:30:24;996.8;;;15.9;90.5
54439;BME280;40347;53.848;27.498;2023-08-07T18:35:52;997;;;15.8;91.1
54439;BME280;40347;53.848;27.498;2023-08-07T18:40:16;997;;;15.7;91.5
54439;BME280;40347;53.848;27.498;2023-08-07T18:45:36;997.1;;;15.6;92.1
54439;BME280;40347;53.848;27.498;2023-08-07T18:50:16;997.3;;;15.5;92.1
54439;BME280;40347;53.848;27.498;2023-08-07T18:55:36;997.4;;;15.5;92.2
54439;BME280;40347;53.848;27.498;2023-08-07T19:00:32;997.4;;;15.5;92.3
54439;BME280;40347;53.848;27.498;2023-08-07T19:05:24;997.5;;;15.5;92.6
54439;BME280;40347;53.848;27.498;2023-08-07T19:10:16;997.6;;;15.5;92.4
54439;BME280;40347;53.848;27.498;2023-08-07T19:15:16;997.7;;;15.5;92.4
54439;BME280;40347;53.848;27.498;2023-08-07T19:20:16;997.7;;;15.5;92.5
54439;BME280;40347;53.848;27.498;2023-08-07T19:25:36;997.7;;;15.6;92.4
54439;BME280;40347;53.848;27.498;2023-08-07T19:30:16;997.8;;;15.6;92.5
54439;BME280;40347;53.848;27.498;2023-08-07T19:35:42;997.9;;;15.6;92.2
54439;BME280;40347;53.848;27.498;2023-08-07T19:40:16;998;;;15.6;91.8
54439;BME280;40347;53.848;27.498;2023-08-07T19:45:24;998;;;15.5;91.8
54439;BME280;40347;53.848;27.498;2023-08-07T19:50:16;998.2;;;15.4;91.6
54439;BME280;40347;53.848;27.498;2023-08-07T19:55:16;998.3;;;15.4;91.7
54439;BME280;40347;53.848;27.498;2023-08-07T20:00:17;998.3;;;15.5;91.9
54439;BME280;40347;53.848;27.498;2023-08-07T20:05:16;998.3;;;15.4;91.6
54439;BME280;40347;53.848;27.498;2023-08-07T20:10:24;998.4;;;15.4;91.3
54439;BME280;40347;53.848;27.498;2023-08-07T20:15:38;998.5;;;15.5;91.3
54439;BME280;40347;53.848;27.498;2023-08-07T20:21:02;998.5;;;15.5;91.3
54439;BME280;40347;53.848;27.498;2023-08-07T20:25:16;998.7;;;15.6;91.3
54439;BME280;40347;53.848;27.498;2023-08-07T20:30:16;998.7;;;15.6;91.1
54439;BME280;40347;53.848;27.498;2023-08-07T20:35:16;998.8;;;15.6;90.7
54439;BME280;40347;53.848;27.498;2023-08-07T20:40:40;998.9;;;15.5;90.8
54439;BME280;40347;53.848;27.498;2023-08-07T20:45:16;999;;;15.6;90.8
54439;BME280;40347;53.848;27.498;2023-08-07T20:50:16;999.1;;;15.5;90.5
54439;BME280;40347;53.848;27.498;2023-08-07T20:55:38;999.1;;;15.6;90.3
54439;BME280;40347;53.848;27.498;2023-08-07T21:00:16;999.2;;;15.6;90.2
54439;BME280;40347;53.848;27.498;2023-08-07T21:05:36;999.4;;;15.6;90.2
54439;BME280;40347;53.848;27.498;2023-08-07T21:10:16;999.4;;;15.5;90.1
54439;BME280;40347;53.848;27.498;2023-08-07T21:15:24;999.4;;;15.6;90
54439;BME280;40347;53.848;27.498;2023-08-07T21:20:32;999.5;;;15.7;90.5
54439;BME280;40347;53.848;27.498;2023-08-07T21:25:16;999.6;;;15.8;89.8
54439;BME280;40347;53.848;27.498;2023-08-07T21:30:42;999.7;;;15.7;89.2
54439;BME280;40347;53.848;27.498;2023-08-07T21:35:28;999.8;;;15.7;89
54439;BME280;40347;53.848;27.498;2023-08-07T21:40:16;999.9;;;15.7;88.9
54439;BME280;40347;53.848;27.498;2023-08-07T21:45:30;1000;;;15.8;88.7
54439;BME280;40347;53.848;27.498;2023-08-07T21:50:22;1000.1;;;15.8;88.7
54439;BME280;40347;53.848;27.498;2023-08-07T21:55:30;1000.1;;;15.8;88.4
54439;BME280;40347;53.848;27.498;2023-08-07T22:00:30;1000.2;;;15.8;88.4
54439;BME280;40347;53.848;27.498;2023-08-07T22:05:52;1000.2;;;15.9;88.3
54439;BME280;40347;53.848;27.498;2023-08-07T22:10:24;1000.2;;;15.9;87.7
54439;BME280;40347;53.848;27.498;2023-08-07T22:15:32;1000.2;;;15.9;87.1
54439;BME280;40347;53.848;27.498;2023-08-07T22:20:16;1000.2;;;15.9;86.7
54439;BME280;40347;53.848;27.498;2023-08-07T22:25:24;1000.3;;;15.9;86.4
54439;BME280;40347;53.848;27.498;2023-08-07T22:30:16;1000.3;;;15.7;86.4
54439;BME280;40347;53.848;27.498;2023-08-07T22:35:30;1000.4;;;15.6;86.7
54439;BME280;40347;53.848;27.498;2023-08-07T22:40:36;1000.4;;;15.7;86.9
54439;BME280;40347;53.848;27.498;2023-08-07T22:45:25;1000.5;;;15.7;86.9
54439;BME280;40347;53.848;27.498;2023-08-07T22:50:17;1000.6;;;15.7;87.1
54439;BME280;40347;53.848;27.498;2023-08-07T22:55:16;1000.7;;;15.7;87
54439;BME280;40347;53.848;27.498;2023-08-07T23:00:16;1000.7;;;15.7;87.2
54439;BME280;40347;53.848;27.498;2023-08-07T23:05:16;1000.8;;;15.7;87.4
54439;BME280;40347;53.848;27.498;2023-08-07T23:10:28;1000.8;;;15.6;87.5
54439;BME280;40347;53.848;27.498;2023-08-07T23:15:24;1000.9;;;15.6;87.6
54439;BME280;40347;53.848;27.498;2023-08-07T23:20:26;1001;;;15.6;87.6
54439;BME280;40347;53.848;27.498;2023-08-07T23:25:16;1001;;;15.6;87.7
54439;BME280;40347;53.848;27.498;2023-08-07T23:30:16;1001.1;;;15.6;87.9
54439;BME280;40347;53.848;27.498;2023-08-07T23:35:30;1001.2;;;15.6;88.1
54439;BME280;40347;53.848;27.498;2023-08-07T23:40:16;1001.3;;;15.7;88.1
54439;BME280;40347;53.848;27.498;2023-08-07T23:45:16;1001.4;;;15.8;87.8
54439;BME280;40347;53.848;27.498;2023-08-07T23:50:16;1001.5;;;15.8;87.5
54439;BME280;40347;53.848;27.498;2023-08-07T23:55:16;1001.5;;;15.8;87.1
